createdAt,value
2023-05-15T00:00:10.867Z,45.11
2023-05-15T00:02:39.913Z,45.11
2023-05-15T00:05:09.439Z,44.61
2023-05-15T00:07:39.432Z,44.73
2023-05-15T00:10:10.616Z,44.52
2023-05-15T00:12:39.220Z,44.32
2023-05-15T00:15:10.975Z,44.48
2023-05-15T00:17:40.196Z,44.62
2023-05-15T00:20:10.519Z,44.62
2023-05-15T00:22:39.040Z,44.69
2023-05-15T00:25:10.417Z,44.63
2023-05-15T00:27:39.089Z,44.43
2023-05-15T00:30:10.030Z,44.64
2023-05-15T00:32:38.892Z,44.72
2023-05-15T00:35:08.960Z,44.58
2023-05-15T00:37:37.566Z,44.56
2023-05-15T00:40:09.766Z,44.88
2023-05-15T00:42:38.574Z,44.93
2023-05-15T00:45:10.872Z,44.97
2023-05-15T00:47:40.897Z,45.30
2023-05-15T00:50:11.814Z,45.12
2023-05-15T00:52:40.744Z,44.89
2023-05-15T00:55:10.379Z,45.31
2023-05-15T00:57:42.010Z,45.42
2023-05-15T01:00:15.357Z,45.36
2023-05-15T01:02:44.337Z,45.59
2023-05-15T01:05:13.414Z,45.64
2023-05-15T01:07:49.434Z,45.72
2023-05-15T01:10:19.797Z,45.70
2023-05-15T01:12:50.978Z,46.06
2023-05-15T01:15:19.888Z,46.05
2023-05-15T01:17:50.216Z,45.96
2023-05-15T01:20:20.881Z,45.94
2023-05-15T01:23:00.183Z,46.39
2023-05-15T01:25:46.348Z,46.59
2023-05-15T01:28:19.955Z,46.65
2023-05-15T01:30:50.794Z,47.04
2023-05-15T01:33:25.869Z,46.76
2023-05-15T01:36:01.841Z,46.69
2023-05-15T01:38:37.066Z,46.89
2023-05-15T01:41:14.007Z,47.31
2023-05-15T01:43:50.040Z,46.98
2023-05-15T01:46:22.541Z,47.06
2023-05-15T01:48:52.301Z,47.15
2023-05-15T01:51:22.777Z,47.30
2023-05-15T01:53:52.417Z,47.12
2023-05-15T01:56:24.570Z,47.16
2023-05-15T01:58:53.945Z,47.19
2023-05-15T02:01:24.234Z,47.20
2023-05-15T02:03:54.545Z,47.18
2023-05-15T02:06:24.180Z,47.22
2023-05-15T02:08:54.970Z,47.29
2023-05-15T02:11:23.609Z,47.07
2023-05-15T02:13:53.273Z,47.20
2023-05-15T02:16:22.130Z,47.64
2023-05-15T02:18:52.202Z,47.96
2023-05-15T02:21:20.868Z,48.14
2023-05-15T02:23:49.896Z,48.41
2023-05-15T02:26:30.869Z,48.65
2023-05-15T02:29:16.012Z,48.91
2023-05-15T02:31:52.908Z,49.15
2023-05-15T02:34:34.061Z,49.87
2023-05-15T02:37:06.048Z,49.97
2023-05-15T02:39:35.130Z,50.35
2023-05-15T02:42:04.429Z,51.08
2023-05-15T02:44:35.994Z,51.44
2023-05-15T02:47:06.233Z,52.18
2023-05-15T02:49:34.957Z,52.60
2023-05-15T02:52:04.271Z,52.67
2023-05-15T02:54:32.861Z,52.48
2023-05-15T02:57:01.698Z,52.79
2023-05-15T02:59:30.521Z,52.86
2023-05-15T03:01:59.290Z,53.15
2023-05-15T03:04:27.913Z,53.54
2023-05-15T03:06:56.638Z,53.82
2023-05-15T03:09:25.518Z,53.98
2023-05-15T03:11:54.773Z,54.17
2023-05-15T03:14:23.356Z,54.52
2023-05-15T03:16:52.223Z,54.72
2023-05-15T03:19:20.833Z,55.19
2023-05-15T03:21:49.317Z,55.94
2023-05-15T03:24:17.808Z,56.41
2023-05-15T03:26:56.452Z,57.45
2023-05-15T03:29:36.237Z,58.44
2023-05-15T03:32:18.294Z,58.88
2023-05-15T03:34:55.705Z,59.18
2023-05-15T03:37:37.403Z,59.66
2023-05-15T03:40:08.863Z,60.53
2023-05-15T03:42:37.574Z,60.89
2023-05-15T03:45:08.515Z,61.01
2023-05-15T03:47:37.242Z,61.96
2023-05-15T03:50:07.576Z,62.69
2023-05-15T03:52:36.305Z,62.91
2023-05-15T03:55:06.979Z,63.23
2023-05-15T03:57:36.272Z,63.44
2023-05-15T04:00:09.620Z,64.43
2023-05-15T04:02:38.568Z,64.71
2023-05-15T04:05:09.996Z,64.39
2023-05-15T04:07:39.280Z,64.17
2023-05-15T04:10:09.400Z,64.95
2023-05-15T04:12:39.669Z,64.90
2023-05-15T04:15:19.014Z,65.50
2023-05-15T04:17:49.329Z,65.54
2023-05-15T04:20:19.952Z,65.88
2023-05-15T04:22:48.822Z,66.33
2023-05-15T04:25:18.148Z,66.83
2023-05-15T04:27:48.740Z,67.68
2023-05-15T04:30:17.596Z,68.28
2023-05-15T04:32:46.758Z,69.21
2023-05-15T04:35:16.058Z,70.11
2023-05-15T04:37:45.690Z,70.52
2023-05-15T04:40:15.878Z,70.98
2023-05-15T04:42:44.565Z,70.68
2023-05-15T04:45:14.424Z,70.63
2023-05-15T04:47:43.171Z,71.34
2023-05-15T04:50:12.269Z,72.29
2023-05-15T04:52:41.050Z,72.80
2023-05-15T04:55:10.966Z,73.10
2023-05-15T04:57:39.678Z,73.88
2023-05-15T05:00:11.782Z,73.63
2023-05-15T05:02:40.705Z,73.54
2023-05-15T05:05:10.663Z,73.69
2023-05-15T05:07:39.427Z,73.37
2023-05-15T05:10:10.616Z,73.67
2023-05-15T05:12:40.772Z,74.10
2023-05-15T05:15:11.696Z,74.49
2023-05-15T05:17:40.584Z,74.21
2023-05-15T05:20:13.156Z,75.09
2023-05-15T05:22:42.438Z,75.42
2023-05-15T05:25:11.524Z,75.44
2023-05-15T05:27:40.354Z,75.74
2023-05-15T05:30:11.396Z,75.91
2023-05-15T05:32:40.307Z,76.07
2023-05-15T05:35:10.348Z,76.23
2023-05-15T05:37:41.289Z,76.68
2023-05-15T05:40:12.921Z,77.14
2023-05-15T05:42:41.518Z,77.48
2023-05-15T05:45:12.164Z,77.30
2023-05-15T05:47:41.005Z,77.26
2023-05-15T05:50:11.342Z,77.64
2023-05-15T05:52:40.183Z,78.58
2023-05-15T05:55:09.864Z,79.30
2023-05-15T05:57:38.633Z,80.19
2023-05-15T06:00:10.449Z,80.33
2023-05-15T06:02:39.981Z,80.68
2023-05-15T06:05:10.007Z,80.66
2023-05-15T06:07:38.860Z,80.88
2023-05-15T06:10:09.660Z,80.64
2023-05-15T06:12:38.986Z,80.60
2023-05-15T06:15:10.253Z,80.83
2023-05-15T06:17:39.157Z,80.96
2023-05-15T06:20:10.723Z,80.81
2023-05-15T06:22:40.287Z,80.46
2023-05-15T06:25:13.447Z,80.78
2023-05-15T06:27:42.729Z,80.83
2023-05-15T06:30:13.728Z,80.62
2023-05-15T06:32:43.263Z,80.56
2023-05-15T06:35:12.501Z,81.34
2023-05-15T06:37:41.576Z,82.06
2023-05-15T06:40:12.074Z,82.76
2023-05-15T06:42:40.727Z,82.60
2023-05-15T06:45:12.062Z,82.93
2023-05-15T06:47:40.993Z,82.60
2023-05-15T06:50:11.260Z,82.42
2023-05-15T06:52:40.134Z,81.81
2023-05-15T06:55:10.321Z,81.56
2023-05-15T06:57:39.110Z,81.33
2023-05-15T07:00:09.969Z,82.25
2023-05-15T07:02:38.788Z,82.39
2023-05-15T07:05:09.996Z,82.56
2023-05-15T07:07:39.069Z,82.83
2023-05-15T07:10:10.104Z,82.85
2023-05-15T07:12:39.021Z,83.46
2023-05-15T07:15:09.659Z,82.79
2023-05-15T07:17:38.595Z,83.63
2023-05-15T07:20:09.682Z,83.34
2023-05-15T07:22:51.863Z,83.18
2023-05-15T07:25:24.823Z,82.99
2023-05-15T07:27:54.275Z,82.76
2023-05-15T07:30:24.567Z,82.64
2023-05-15T07:32:53.682Z,83.01
2023-05-15T07:35:22.702Z,83.04
2023-05-15T07:37:51.599Z,82.96
2023-05-15T07:40:20.565Z,82.72
2023-05-15T07:42:49.474Z,83.35
2023-05-15T07:45:18.665Z,83.20
2023-05-15T07:47:49.075Z,83.25
2023-05-15T07:50:18.413Z,84.43
2023-05-15T07:52:47.395Z,83.85
2023-05-15T07:55:16.996Z,83.78
2023-05-15T07:57:53.362Z,84.17
2023-05-15T08:00:25.418Z,83.97
2023-05-15T08:02:54.188Z,84.11
2023-05-15T08:05:23.802Z,84.22
2023-05-15T08:07:53.033Z,84.82
2023-05-15T08:10:22.130Z,85.00
2023-05-15T08:12:50.734Z,84.83
2023-05-15T08:15:19.507Z,84.31
2023-05-15T08:17:48.564Z,83.89
2023-05-15T08:20:18.062Z,84.85
2023-05-15T08:22:46.796Z,86.08
2023-05-15T08:25:15.750Z,86.71
2023-05-15T08:27:44.620Z,86.78
2023-05-15T08:30:15.179Z,86.92
2023-05-15T08:32:45.989Z,86.78
2023-05-15T08:35:15.198Z,86.06
2023-05-15T08:37:43.882Z,85.44
2023-05-15T08:40:15.225Z,84.79
2023-05-15T08:42:48.663Z,84.98
2023-05-15T08:45:17.596Z,84.99
2023-05-15T08:47:46.657Z,85.16
2023-05-15T08:50:16.917Z,84.87
2023-05-15T08:52:46.796Z,85.33
2023-05-15T08:55:16.418Z,86.53
2023-05-15T08:57:48.346Z,86.49
2023-05-15T09:00:21.823Z,86.71
2023-05-15T09:02:50.773Z,86.11
2023-05-15T09:05:20.080Z,85.26
2023-05-15T09:07:51.188Z,85.07
2023-05-15T09:10:21.417Z,85.86
2023-05-15T09:12:52.561Z,86.27
2023-05-15T09:15:25.709Z,87.02
2023-05-15T09:17:56.656Z,86.85
2023-05-15T09:20:30.308Z,86.54
2023-05-15T09:23:01.483Z,87.40
2023-05-15T09:25:38.593Z,87.57
2023-05-15T09:28:09.514Z,86.77
2023-05-15T09:30:41.952Z,87.24
2023-05-15T09:33:11.211Z,87.73
2023-05-15T09:35:40.796Z,88.11
2023-05-15T09:38:12.187Z,88.35
2023-05-15T09:40:41.635Z,87.91
2023-05-15T09:43:13.497Z,86.51
2023-05-15T09:45:43.021Z,85.84
2023-05-15T09:48:13.859Z,85.89
2023-05-15T09:50:42.775Z,86.08
2023-05-15T09:53:14.016Z,86.12
2023-05-15T09:55:44.742Z,86.21
2023-05-15T09:58:15.917Z,87.29
2023-05-15T10:00:49.705Z,87.63
2023-05-15T10:03:20.494Z,87.15
2023-05-15T10:05:49.763Z,87.60
2023-05-15T10:08:29.013Z,87.65
2023-05-15T10:11:00.952Z,87.49
2023-05-15T10:13:34.839Z,87.60
2023-05-15T10:16:05.948Z,87.57
2023-05-15T10:18:36.770Z,87.04
2023-05-15T10:21:08.612Z,86.31
2023-05-15T10:23:43.577Z,85.48
2023-05-15T10:26:21.824Z,84.88
2023-05-15T10:28:52.023Z,85.78
2023-05-15T10:31:22.233Z,86.24
2023-05-15T10:33:55.146Z,86.84
2023-05-15T10:36:26.942Z,86.62
2023-05-15T10:38:57.220Z,86.06
2023-05-15T10:41:28.967Z,86.27
2023-05-15T10:44:00.172Z,85.82
2023-05-15T10:46:32.907Z,86.07
2023-05-15T10:49:03.019Z,86.61
2023-05-15T10:51:33.222Z,86.36
2023-05-15T10:54:04.139Z,86.57
2023-05-15T10:56:34.621Z,86.59
2023-05-15T10:59:08.246Z,86.95
2023-05-15T11:01:38.615Z,86.97
2023-05-15T11:04:10.358Z,86.35
2023-05-15T11:06:41.009Z,85.31
2023-05-15T11:09:37.252Z,85.71
2023-05-15T11:12:09.416Z,85.54
2023-05-15T11:14:40.015Z,85.75
2023-05-15T11:17:10.750Z,85.72
2023-05-15T11:19:59.185Z,85.68
2023-05-15T11:22:31.797Z,84.66
2023-05-15T11:25:01.809Z,84.65
2023-05-15T11:27:34.185Z,85.27
2023-05-15T11:30:11.358Z,86.24
2023-05-15T11:32:45.309Z,85.85
2023-05-15T11:35:19.093Z,85.30
2023-05-15T11:37:49.879Z,85.08
2023-05-15T11:40:23.358Z,85.10
2023-05-15T11:43:03.617Z,85.17
2023-05-15T11:45:33.723Z,85.44
2023-05-15T11:48:04.978Z,85.14
2023-05-15T11:50:35.521Z,84.72
2023-05-15T11:53:06.132Z,84.51
2023-05-15T11:55:37.293Z,84.19
2023-05-15T11:58:10.964Z,84.35
2023-05-15T12:00:40.135Z,84.76
2023-05-15T12:03:14.483Z,84.90
2023-05-15T12:05:54.208Z,85.28
2023-05-15T12:08:27.319Z,85.70
2023-05-15T12:10:58.538Z,86.03
2023-05-15T12:13:27.760Z,86.13
2023-05-15T12:15:57.820Z,85.95
2023-05-15T12:18:26.690Z,85.84
2023-05-15T12:20:56.990Z,85.14
2023-05-15T12:23:26.889Z,84.96
2023-05-15T12:25:58.995Z,84.73
2023-05-15T12:28:29.159Z,84.67
2023-05-15T12:30:58.841Z,84.98
2023-05-15T12:33:28.143Z,84.23
2023-05-15T12:36:01.178Z,83.66
2023-05-15T12:38:33.519Z,83.07
2023-05-15T12:41:02.374Z,82.91
2023-05-15T12:43:32.404Z,83.32
2023-05-15T12:46:01.514Z,83.26
2023-05-15T12:48:34.047Z,83.55
2023-05-15T12:51:10.209Z,83.55
2023-05-15T12:53:39.693Z,83.36
2023-05-15T12:56:10.100Z,83.30
2023-05-15T12:58:39.907Z,83.24
2023-05-15T13:01:08.930Z,82.91
2023-05-15T13:03:39.154Z,82.49
2023-05-15T13:06:09.880Z,81.91
2023-05-15T13:08:42.785Z,81.52
2023-05-15T13:11:14.176Z,81.67
2023-05-15T13:13:48.314Z,81.88
2023-05-15T13:16:22.227Z,81.55
2023-05-15T13:18:51.406Z,81.22
2023-05-15T13:21:20.372Z,81.38
2023-05-15T13:23:49.650Z,81.48
2023-05-15T13:26:18.736Z,81.30
2023-05-15T13:28:47.666Z,80.93
2023-05-15T13:31:16.729Z,80.07
2023-05-15T13:33:45.772Z,79.46
2023-05-15T13:36:14.492Z,79.54
2023-05-15T13:38:43.496Z,79.69
2023-05-15T13:41:12.641Z,78.98
2023-05-15T13:43:41.647Z,78.79
2023-05-15T13:46:10.601Z,79.12
2023-05-15T13:48:39.964Z,79.32
2023-05-15T13:51:09.010Z,79.00
2023-05-15T13:53:37.682Z,78.83
2023-05-15T13:56:07.319Z,79.16
2023-05-15T13:58:36.934Z,79.04
2023-05-15T14:01:07.446Z,79.08
2023-05-15T14:03:36.723Z,79.04
2023-05-15T14:06:08.817Z,78.98
2023-05-15T14:08:37.767Z,79.15
2023-05-15T14:11:06.945Z,79.77
2023-05-15T14:13:36.430Z,79.70
2023-05-15T14:16:11.271Z,79.88
2023-05-15T14:18:40.801Z,80.22
2023-05-15T14:21:10.095Z,80.10
2023-05-15T14:23:39.040Z,79.68
2023-05-15T14:26:08.068Z,79.55
2023-05-15T14:28:37.013Z,79.61
2023-05-15T14:31:05.962Z,79.68
2023-05-15T14:33:34.879Z,80.10
2023-05-15T14:36:05.159Z,79.73
2023-05-15T14:38:35.038Z,79.38
2023-05-15T14:41:04.565Z,78.94
2023-05-15T14:43:33.776Z,79.06
2023-05-15T14:46:02.873Z,79.38
2023-05-15T14:48:33.398Z,79.01
2023-05-15T14:51:02.997Z,78.71
2023-05-15T14:53:31.970Z,77.97
2023-05-15T14:56:01.108Z,77.74
2023-05-15T14:58:30.216Z,77.91
2023-05-15T15:00:59.154Z,77.75
2023-05-15T15:03:30.520Z,77.37
2023-05-15T15:06:00.924Z,77.34
2023-05-15T15:08:30.175Z,77.53
2023-05-15T15:10:59.342Z,77.38
2023-05-15T15:13:29.629Z,77.15
2023-05-15T15:15:58.789Z,76.30
2023-05-15T15:18:28.048Z,76.14
2023-05-15T15:20:56.979Z,76.31
2023-05-15T15:23:25.950Z,76.63
2023-05-15T15:25:54.956Z,76.63
2023-05-15T15:28:24.860Z,76.22
2023-05-15T15:30:53.907Z,76.24
2023-05-15T15:33:22.928Z,76.09
2023-05-15T15:35:52.321Z,76.39
2023-05-15T15:38:21.125Z,76.18
2023-05-15T15:40:49.965Z,75.78
2023-05-15T15:43:18.976Z,75.42
2023-05-15T15:45:47.922Z,75.72
2023-05-15T15:48:18.601Z,76.13
2023-05-15T15:50:47.714Z,76.71
2023-05-15T15:53:16.592Z,77.15
2023-05-15T15:55:47.143Z,77.60
2023-05-15T15:58:16.300Z,78.75
2023-05-15T16:00:45.080Z,79.96
2023-05-15T16:03:14.172Z,79.96
2023-05-15T16:05:42.973Z,80.25
2023-05-15T16:08:11.799Z,81.05
2023-05-15T16:10:40.736Z,80.89
2023-05-15T16:13:10.559Z,81.38
2023-05-15T16:15:39.440Z,82.02
2023-05-15T16:18:08.339Z,82.07
2023-05-15T16:20:37.418Z,81.78
2023-05-15T16:23:08.852Z,82.28
2023-05-15T16:25:38.134Z,83.15
2023-05-15T16:28:08.733Z,82.50
2023-05-15T16:30:48.003Z,82.03
2023-05-15T16:33:18.221Z,82.24
2023-05-15T16:35:48.156Z,82.51
2023-05-15T16:38:17.923Z,83.04
2023-05-15T16:40:47.222Z,82.94
2023-05-15T16:43:16.783Z,82.63
2023-05-15T16:45:46.819Z,82.00
2023-05-15T16:48:16.105Z,81.49
2023-05-15T16:50:45.296Z,81.48
2023-05-15T16:53:15.139Z,81.99
2023-05-15T16:55:44.360Z,82.14
2023-05-15T16:58:13.670Z,81.86
2023-05-15T17:00:42.793Z,81.81
2023-05-15T17:03:12.503Z,81.44
2023-05-15T17:05:41.387Z,81.32
2023-05-15T17:08:11.018Z,81.32
2023-05-15T17:10:40.161Z,81.51
2023-05-15T17:13:10.502Z,80.87
2023-05-15T17:15:39.524Z,81.02
2023-05-15T17:18:08.781Z,80.60
2023-05-15T17:20:37.769Z,80.56
2023-05-15T17:23:06.644Z,80.84
2023-05-15T17:25:35.771Z,80.65
2023-05-15T17:28:04.894Z,80.44
2023-05-15T17:30:34.257Z,80.57
2023-05-15T17:33:03.491Z,80.02
2023-05-15T17:35:33.295Z,80.13
2023-05-15T17:38:02.458Z,80.25
2023-05-15T17:40:43.084Z,80.21
2023-05-15T17:43:12.005Z,79.97
2023-05-15T17:45:55.425Z,79.82
2023-05-15T17:48:24.285Z,79.81
2023-05-15T17:50:53.007Z,79.88
2023-05-15T17:53:23.679Z,79.89
2023-05-15T17:55:52.613Z,79.68
2023-05-15T17:58:21.671Z,79.92
2023-05-15T18:00:51.121Z,79.92
2023-05-15T18:03:20.274Z,79.93
2023-05-15T18:05:49.629Z,79.20
2023-05-15T18:08:18.583Z,78.87
2023-05-15T18:10:47.758Z,78.48
2023-05-15T18:13:16.717Z,78.05
2023-05-15T18:15:46.530Z,78.40
2023-05-15T18:18:16.005Z,78.50
2023-05-15T18:20:45.169Z,78.61
2023-05-15T18:23:14.204Z,78.12
2023-05-15T18:25:42.983Z,77.71
2023-05-15T18:28:12.472Z,77.79
2023-05-15T18:30:41.593Z,78.02
2023-05-15T18:33:10.924Z,78.37
2023-05-15T18:35:40.366Z,78.49
2023-05-15T18:38:09.738Z,79.17
2023-05-15T18:40:39.055Z,79.13
2023-05-15T18:43:08.012Z,79.16
2023-05-15T18:45:37.121Z,79.04
2023-05-15T18:48:07.131Z,79.24
2023-05-15T18:50:37.625Z,79.04
2023-05-15T18:53:07.853Z,79.49
2023-05-15T18:55:38.495Z,79.63
2023-05-15T18:58:07.755Z,79.83
2023-05-15T19:00:39.380Z,80.32
2023-05-15T19:03:10.348Z,80.05
2023-05-15T19:05:39.830Z,79.90
2023-05-15T19:08:08.705Z,79.23
2023-05-15T19:10:37.794Z,78.90
2023-05-15T19:13:06.609Z,79.20
2023-05-15T19:15:35.891Z,79.89
2023-05-15T19:18:10.993Z,80.63
2023-05-15T19:20:40.026Z,80.35
2023-05-15T19:23:09.748Z,80.50
2023-05-15T19:25:47.918Z,80.93
2023-05-15T19:28:20.991Z,80.69
2023-05-15T19:30:50.887Z,80.54
2023-05-15T19:33:20.402Z,80.44
2023-05-15T19:35:50.897Z,80.35
2023-05-15T19:38:21.962Z,80.18
2023-05-15T19:40:51.716Z,79.98
2023-05-15T19:43:21.039Z,80.61
2023-05-15T19:46:00.685Z,80.51
2023-05-15T19:48:36.204Z,80.62
2023-05-15T19:51:05.251Z,80.58
2023-05-15T19:53:34.284Z,80.37
2023-05-15T19:56:03.376Z,80.50
2023-05-15T19:58:32.642Z,80.50
2023-05-15T20:01:02.380Z,80.55
2023-05-15T20:03:36.473Z,79.83
2023-05-15T20:06:05.728Z,79.71
2023-05-15T20:08:34.612Z,79.54
2023-05-15T20:11:03.776Z,79.32
2023-05-15T20:13:32.556Z,79.39
2023-05-15T20:16:03.700Z,80.51
2023-05-15T20:18:41.850Z,81.15
2023-05-15T20:21:13.398Z,81.04
2023-05-15T20:23:45.880Z,81.14
2023-05-15T20:26:18.167Z,81.38
2023-05-15T20:28:52.300Z,80.99
2023-05-15T20:31:24.603Z,80.82
2023-05-15T20:33:58.130Z,81.09
2023-05-15T20:36:32.278Z,80.42
2023-05-15T20:39:07.065Z,80.44
2023-05-15T20:41:36.774Z,80.21
2023-05-15T20:44:10.719Z,79.70
2023-05-15T20:46:44.886Z,79.44
2023-05-15T20:49:16.647Z,79.95
2023-05-15T20:51:48.867Z,79.58
2023-05-15T20:54:18.881Z,79.64
2023-05-15T20:56:47.625Z,79.98
2023-05-15T20:59:17.026Z,80.52
2023-05-15T21:01:46.278Z,80.18
2023-05-15T21:04:16.186Z,80.51
2023-05-15T21:06:45.912Z,80.64
2023-05-15T21:09:16.553Z,80.68
2023-05-15T21:11:46.884Z,80.99
2023-05-15T21:14:16.753Z,81.05
2023-05-15T21:16:46.475Z,81.28
2023-05-15T21:19:19.542Z,81.37
2023-05-15T21:21:49.031Z,81.77
2023-05-15T21:24:18.526Z,81.71
2023-05-15T21:26:47.828Z,81.83
2023-05-15T21:29:17.092Z,81.99
2023-05-15T21:31:46.154Z,82.01
2023-05-15T21:34:15.452Z,82.03
2023-05-15T21:36:44.377Z,81.64
2023-05-15T21:39:15.216Z,80.95
2023-05-15T21:41:44.479Z,81.22
2023-05-15T21:44:13.574Z,81.25
2023-05-15T21:46:42.734Z,81.51
2023-05-15T21:49:13.425Z,81.13
2023-05-15T21:51:43.110Z,81.00
2023-05-15T21:54:12.186Z,81.12
2023-05-15T21:56:41.413Z,81.64
2023-05-15T21:59:13.730Z,81.39
2023-05-15T22:01:43.242Z,81.22
2023-05-15T22:04:12.962Z,81.46
2023-05-15T22:06:42.104Z,81.67
2023-05-15T22:09:11.800Z,81.83
2023-05-15T22:11:41.794Z,81.54
2023-05-15T22:14:11.392Z,82.35
2023-05-15T22:16:40.621Z,82.02
2023-05-15T22:19:21.487Z,82.59
2023-05-15T22:21:58.441Z,82.78
2023-05-15T22:24:28.027Z,82.74
2023-05-15T22:26:57.480Z,82.70
2023-05-15T22:29:26.878Z,82.49
2023-05-15T22:31:56.275Z,82.71
2023-05-15T22:34:28.432Z,82.08
2023-05-15T22:36:57.613Z,81.67
2023-05-15T22:39:26.566Z,81.85
2023-05-15T22:41:55.431Z,80.84
2023-05-15T22:44:24.910Z,80.50
2023-05-15T22:46:54.079Z,80.97
2023-05-15T22:49:25.148Z,80.61
2023-05-15T22:51:55.556Z,80.66
2023-05-15T22:54:33.041Z,80.68
2023-05-15T22:57:09.838Z,80.58
2023-05-15T22:59:43.387Z,80.23
2023-05-15T23:02:23.999Z,80.04
2023-05-15T23:04:57.846Z,80.26
2023-05-15T23:07:28.245Z,80.74
2023-05-15T23:09:58.014Z,80.64
2023-05-15T23:12:27.436Z,80.87
2023-05-15T23:14:56.686Z,80.27
2023-05-15T23:17:26.743Z,80.63
2023-05-15T23:20:04.269Z,80.32
2023-05-15T23:22:34.558Z,80.88
2023-05-15T23:25:05.078Z,81.20
2023-05-15T23:27:34.937Z,81.62
2023-05-15T23:30:05.029Z,81.69
2023-05-15T23:32:33.833Z,81.66
2023-05-15T23:35:03.391Z,81.15
2023-05-15T23:37:32.118Z,82.41
2023-05-15T23:40:01.377Z,83.13
2023-05-15T23:42:31.039Z,82.87
2023-05-15T23:45:00.795Z,82.99
2023-05-15T23:47:29.578Z,82.63
2023-05-15T23:49:58.583Z,82.22
2023-05-15T23:52:27.323Z,82.26
2023-05-15T23:54:55.907Z,81.74
2023-05-15T23:57:24.720Z,81.34
2023-05-15T23:59:53.574Z,81.36
